sensor_id;sensor_type;location;lat;lon;timestamp;P1;durP1;ratioP1;P2;durP2;ratioP2
56455;SDS011;42354;53.218;6.564;2022-08-01T00:00:21;8.95;;;4.57;;
56455;SDS011;42354;53.218;6.564;2022-08-01T00:02:46;8.82;;;4.60;;
56455;SDS011;42354;53.218;6.564;2022-08-01T00:05:12;5.60;;;4.55;;
56455;SDS011;42354;53.218;6.564;2022-08-01T00:07:38;9.75;;;4.75;;
56455;SDS011;42354;53.218;6.564;2022-08-01T00:10:04;8.50;;;5.05;;
56455;SDS011;42354;53.218;6.564;2022-08-01T00:12:30;5.90;;;4.47;;
56455;SDS011;42354;53.218;6.564;2022-08-01T00:14:56;10.35;;;5.63;;
56455;SDS011;42354;53.218;6.564;2022-08-01T00:17:21;8.88;;;5.53;;
56455;SDS011;42354;53.218;6.564;2022-08-01T00:19:47;11.25;;;5.45;;
56455;SDS011;42354;53.218;6.564;2022-08-01T00:22:12;10.52;;;5.70;;
56455;SDS011;42354;53.218;6.564;2022-08-01T00:24:37;7.80;;;5.18;;
56455;SDS011;42354;53.218;6.564;2022-08-01T00:27:03;10.57;;;5.28;;
56455;SDS011;42354;53.218;6.564;2022-08-01T00:29:28;6.80;;;4.28;;
56455;SDS011;42354;53.218;6.564;2022-08-01T00:31:53;7.47;;;4.50;;
56455;SDS011;42354;53.218;6.564;2022-08-01T00:34:19;10.93;;;5.85;;
56455;SDS011;42354;53.218;6.564;2022-08-01T00:36:44;7.00;;;4.78;;
56455;SDS011;42354;53.218;6.564;2022-08-01T00:39:09;14.20;;;6.38;;
56455;SDS011;42354;53.218;6.564;2022-08-01T00:41:35;8.80;;;5.50;;
56455;SDS011;42354;53.218;6.564;2022-08-01T00:44:04;8.65;;;5.40;;
56455;SDS011;42354;53.218;6.564;2022-08-01T00:46:30;12.50;;;5.70;;
56455;SDS011;42354;53.218;6.564;2022-08-01T00:48:57;14.98;;;6.10;;
56455;SDS011;42354;53.218;6.564;2022-08-01T00:51:23;10.23;;;5.32;;
56455;SDS011;42354;53.218;6.564;2022-08-01T00:53:49;8.45;;;5.05;;
56455;SDS011;42354;53.218;6.564;2022-08-01T00:56:16;9.80;;;4.82;;
56455;SDS011;42354;53.218;6.564;2022-08-01T00:58:42;8.85;;;4.38;;
56455;SDS011;42354;53.218;6.564;2022-08-01T01:01:08;10.93;;;4.88;;
56455;SDS011;42354;53.218;6.564;2022-08-01T01:03:34;6.13;;;4.20;;
56455;SDS011;42354;53.218;6.564;2022-08-01T01:06:05;9.07;;;3.75;;
56455;SDS011;42354;53.218;6.564;2022-08-01T01:08:52;7.40;;;3.80;;
56455;SDS011;42354;53.218;6.564;2022-08-01T01:11:22;6.03;;;3.67;;
56455;SDS011;42354;53.218;6.564;2022-08-01T01:13:54;9.05;;;3.42;;
56455;SDS011;42354;53.218;6.564;2022-08-01T01:16:35;8.13;;;3.58;;
56455;SDS011;42354;53.218;6.564;2022-08-01T01:19:05;10.23;;;3.35;;
56455;SDS011;42354;53.218;6.564;2022-08-01T01:34:34;4.90;;;2.95;;
56455;SDS011;42354;53.218;6.564;2022-08-01T01:37:03;7.28;;;2.88;;
56455;SDS011;42354;53.218;6.564;2022-08-01T01:39:33;6.65;;;3.05;;
56455;SDS011;42354;53.218;6.564;2022-08-01T01:42:02;8.82;;;3.08;;
56455;SDS011;42354;53.218;6.564;2022-08-01T01:44:31;11.70;;;3.15;;
56455;SDS011;42354;53.218;6.564;2022-08-01T01:46:56;9.75;;;3.00;;
56455;SDS011;42354;53.218;6.564;2022-08-01T01:49:25;10.82;;;3.05;;
56455;SDS011;42354;53.218;6.564;2022-08-01T01:51:53;10.13;;;2.95;;
56455;SDS011;42354;53.218;6.564;2022-08-01T01:54:22;10.35;;;3.33;;
56455;SDS011;42354;53.218;6.564;2022-08-01T01:56:50;14.15;;;3.75;;
56455;SDS011;42354;53.218;6.564;2022-08-01T01:59:18;7.35;;;2.83;;
56455;SDS011;42354;53.218;6.564;2022-08-01T02:01:46;11.48;;;3.20;;
56455;SDS011;42354;53.218;6.564;2022-08-01T02:04:14;15.35;;;3.45;;
56455;SDS011;42354;53.218;6.564;2022-08-01T02:06:42;9.85;;;2.85;;
56455;SDS011;42354;53.218;6.564;2022-08-01T02:09:10;10.27;;;2.67;;
56455;SDS011;42354;53.218;6.564;2022-08-01T02:11:36;8.90;;;2.50;;
56455;SDS011;42354;53.218;6.564;2022-08-01T02:14:03;11.43;;;2.95;;
56455;SDS011;42354;53.218;6.564;2022-08-01T02:16:31;13.38;;;2.55;;
56455;SDS011;42354;53.218;6.564;2022-08-01T02:18:59;8.30;;;2.00;;
56455;SDS011;42354;53.218;6.564;2022-08-01T02:22:27;9.88;;;1.92;;
56455;SDS011;42354;53.218;6.564;2022-08-01T02:24:29;6.07;;;1.95;;
56455;SDS011;42354;53.218;6.564;2022-08-01T02:27:15;7.10;;;1.67;;
56455;SDS011;42354;53.218;6.564;2022-08-01T02:29:50;13.23;;;2.15;;
56455;SDS011;42354;53.218;6.564;2022-08-01T02:32:27;7.85;;;2.10;;
56455;SDS011;42354;53.218;6.564;2022-08-01T02:34:57;10.52;;;2.80;;
56455;SDS011;42354;53.218;6.564;2022-08-01T02:37:26;14.77;;;3.20;;
56455;SDS011;42354;53.218;6.564;2022-08-01T02:39:54;14.00;;;3.65;;
56455;SDS011;42354;53.218;6.564;2022-08-01T02:42:22;13.18;;;3.65;;
56455;SDS011;42354;53.218;6.564;2022-08-01T02:44:50;15.68;;;3.20;;
56455;SDS011;42354;53.218;6.564;2022-08-01T02:47:19;16.45;;;4.10;;
56455;SDS011;42354;53.218;6.564;2022-08-01T02:49:47;14.05;;;3.92;;
56455;SDS011;42354;53.218;6.564;2022-08-01T02:52:15;11.50;;;4.43;;
56455;SDS011;42354;53.218;6.564;2022-08-01T02:54:45;17.58;;;3.60;;
56455;SDS011;42354;53.218;6.564;2022-08-01T02:57:14;11.27;;;3.80;;
56455;SDS011;42354;53.218;6.564;2022-08-01T02:59:41;17.75;;;3.63;;
56455;SDS011;42354;53.218;6.564;2022-08-01T03:02:08;13.40;;;3.85;;
56455;SDS011;42354;53.218;6.564;2022-08-01T03:04:35;13.63;;;3.40;;
56455;SDS011;42354;53.218;6.564;2022-08-01T03:07:03;13.10;;;3.20;;
56455;SDS011;42354;53.218;6.564;2022-08-01T03:09:32;8.65;;;2.90;;
56455;SDS011;42354;53.218;6.564;2022-08-01T03:12:01;10.45;;;3.70;;
56455;SDS011;42354;53.218;6.564;2022-08-01T03:14:29;8.70;;;3.38;;
56455;SDS011;42354;53.218;6.564;2022-08-01T03:16:57;15.05;;;3.00;;
56455;SDS011;42354;53.218;6.564;2022-08-01T03:19:25;14.15;;;3.97;;
56455;SDS011;42354;53.218;6.564;2022-08-01T03:21:55;10.40;;;4.15;;
56455;SDS011;42354;53.218;6.564;2022-08-01T03:24:23;13.18;;;4.15;;
56455;SDS011;42354;53.218;6.564;2022-08-01T03:26:50;14.35;;;4.00;;
56455;SDS011;42354;53.218;6.564;2022-08-01T03:29:19;14.35;;;3.78;;
56455;SDS011;42354;53.218;6.564;2022-08-01T03:31:49;11.63;;;3.47;;
56455;SDS011;42354;53.218;6.564;2022-08-01T03:34:15;10.15;;;2.90;;
56455;SDS011;42354;53.218;6.564;2022-08-01T03:36:48;17.63;;;3.22;;
56455;SDS011;42354;53.218;6.564;2022-08-01T03:39:18;14.32;;;3.38;;
56455;SDS011;42354;53.218;6.564;2022-08-01T03:41:51;14.90;;;3.85;;
56455;SDS011;42354;53.218;6.564;2022-08-01T03:44:23;14.40;;;3.47;;
56455;SDS011;42354;53.218;6.564;2022-08-01T03:46:56;14.73;;;3.38;;
56455;SDS011;42354;53.218;6.564;2022-08-01T03:49:27;12.07;;;3.63;;
56455;SDS011;42354;53.218;6.564;2022-08-01T03:51:55;10.60;;;3.55;;
56455;SDS011;42354;53.218;6.564;2022-08-01T03:54:23;11.00;;;3.53;;
56455;SDS011;42354;53.218;6.564;2022-08-01T03:56:53;10.20;;;3.15;;
56455;SDS011;42354;53.218;6.564;2022-08-01T03:59:19;12.10;;;3.50;;
56455;SDS011;42354;53.218;6.564;2022-08-01T04:01:46;17.60;;;3.80;;
56455;SDS011;42354;53.218;6.564;2022-08-01T04:04:12;13.02;;;3.63;;
56455;SDS011;42354;53.218;6.564;2022-08-01T04:06:39;15.57;;;3.05;;
56455;SDS011;42354;53.218;6.564;2022-08-01T04:09:10;12.20;;;2.80;;
56455;SDS011;42354;53.218;6.564;2022-08-01T04:11:39;15.48;;;3.13;;
56455;SDS011;42354;53.218;6.564;2022-08-01T04:14:05;12.02;;;2.92;;
56455;SDS011;42354;53.218;6.564;2022-08-01T04:16:31;10.52;;;2.72;;
56455;SDS011;42354;53.218;6.564;2022-08-01T04:18:56;13.45;;;3.03;;
56455;SDS011;42354;53.218;6.564;2022-08-01T04:21:23;14.48;;;3.00;;
56455;SDS011;42354;53.218;6.564;2022-08-01T04:23:52;13.90;;;3.42;;
56455;SDS011;42354;53.218;6.564;2022-08-01T04:26:20;15.77;;;3.17;;
56455;SDS011;42354;53.218;6.564;2022-08-01T04:28:46;9.95;;;2.67;;
56455;SDS011;42354;53.218;6.564;2022-08-01T04:31:14;13.27;;;3.17;;
56455;SDS011;42354;53.218;6.564;2022-08-01T04:33:43;14.93;;;2.85;;
56455;SDS011;42354;53.218;6.564;2022-08-01T04:36:12;13.32;;;2.72;;
56455;SDS011;42354;53.218;6.564;2022-08-01T04:38:39;11.73;;;2.90;;
56455;SDS011;42354;53.218;6.564;2022-08-01T04:41:10;14.55;;;2.78;;
56455;SDS011;42354;53.218;6.564;2022-08-01T04:43:38;15.75;;;3.28;;
56455;SDS011;42354;53.218;6.564;2022-08-01T04:46:05;17.13;;;3.92;;
56455;SDS011;42354;53.218;6.564;2022-08-01T04:48:32;13.02;;;3.45;;
56455;SDS011;42354;53.218;6.564;2022-08-01T04:50:59;19.65;;;3.33;;
56455;SDS011;42354;53.218;6.564;2022-08-01T04:53:25;12.55;;;3.17;;
56455;SDS011;42354;53.218;6.564;2022-08-01T04:55:51;11.95;;;3.35;;
56455;SDS011;42354;53.218;6.564;2022-08-01T04:58:17;19.73;;;4.22;;
56455;SDS011;42354;53.218;6.564;2022-08-01T05:00:43;13.32;;;3.03;;
56455;SDS011;42354;53.218;6.564;2022-08-01T05:03:08;14.10;;;3.40;;
56455;SDS011;42354;53.218;6.564;2022-08-01T05:05:34;12.70;;;3.17;;
56455;SDS011;42354;53.218;6.564;2022-08-01T05:08:00;13.77;;;3.17;;
56455;SDS011;42354;53.218;6.564;2022-08-01T05:10:25;13.75;;;3.00;;
56455;SDS011;42354;53.218;6.564;2022-08-01T05:12:51;17.20;;;2.83;;
56455;SDS011;42354;53.218;6.564;2022-08-01T05:15:16;15.45;;;2.95;;
56455;SDS011;42354;53.218;6.564;2022-08-01T05:17:42;15.68;;;3.05;;
56455;SDS011;42354;53.218;6.564;2022-08-01T05:20:07;26.45;;;3.80;;
56455;SDS011;42354;53.218;6.564;2022-08-01T05:22:33;17.90;;;3.72;;
56455;SDS011;42354;53.218;6.564;2022-08-01T05:24:58;13.55;;;3.22;;
56455;SDS011;42354;53.218;6.564;2022-08-01T05:27:24;28.98;;;4.70;;
56455;SDS011;42354;53.218;6.564;2022-08-01T05:29:50;19.40;;;3.90;;
56455;SDS011;42354;53.218;6.564;2022-08-01T05:32:15;22.15;;;3.92;;
56455;SDS011;42354;53.218;6.564;2022-08-01T05:34:41;21.40;;;3.47;;
56455;SDS011;42354;53.218;6.564;2022-08-01T05:37:06;24.88;;;3.83;;
56455;SDS011;42354;53.218;6.564;2022-08-01T05:39:32;21.65;;;3.20;;
56455;SDS011;42354;53.218;6.564;2022-08-01T05:41:57;18.67;;;3.92;;
56455;SDS011;42354;53.218;6.564;2022-08-01T05:44:23;22.02;;;3.60;;
56455;SDS011;42354;53.218;6.564;2022-08-01T05:46:48;18.15;;;4.05;;
56455;SDS011;42354;53.218;6.564;2022-08-01T05:49:14;28.38;;;4.18;;
56455;SDS011;42354;53.218;6.564;2022-08-01T05:51:39;20.33;;;3.55;;
56455;SDS011;42354;53.218;6.564;2022-08-01T05:54:05;21.77;;;3.42;;
56455;SDS011;42354;53.218;6.564;2022-08-01T05:56:30;25.77;;;3.28;;
56455;SDS011;42354;53.218;6.564;2022-08-01T05:58:56;17.10;;;3.05;;
56455;SDS011;42354;53.218;6.564;2022-08-01T06:01:21;14.85;;;3.08;;
56455;SDS011;42354;53.218;6.564;2022-08-01T06:03:46;28.38;;;3.88;;
56455;SDS011;42354;53.218;6.564;2022-08-01T06:06:12;16.42;;;3.00;;
56455;SDS011;42354;53.218;6.564;2022-08-01T06:08:39;22.92;;;3.33;;
56455;SDS011;42354;53.218;6.564;2022-08-01T06:11:04;20.40;;;4.20;;
56455;SDS011;42354;53.218;6.564;2022-08-01T06:13:30;20.25;;;3.50;;
56455;SDS011;42354;53.218;6.564;2022-08-01T06:15:55;19.90;;;3.28;;
56455;SDS011;42354;53.218;6.564;2022-08-01T06:18:20;14.18;;;3.10;;
56455;SDS011;42354;53.218;6.564;2022-08-01T06:20:47;15.70;;;2.92;;
56455;SDS011;42354;53.218;6.564;2022-08-01T06:23:12;15.63;;;2.90;;
56455;SDS011;42354;53.218;6.564;2022-08-01T06:25:38;16.23;;;3.13;;
56455;SDS011;42354;53.218;6.564;2022-08-01T06:28:04;21.00;;;2.85;;
56455;SDS011;42354;53.218;6.564;2022-08-01T06:30:29;17.05;;;2.70;;
56455;SDS011;42354;53.218;6.564;2022-08-01T06:32:55;20.13;;;3.17;;
56455;SDS011;42354;53.218;6.564;2022-08-01T06:35:23;19.60;;;3.22;;
56455;SDS011;42354;53.218;6.564;2022-08-01T06:37:49;22.05;;;2.97;;
56455;SDS011;42354;53.218;6.564;2022-08-01T06:40:15;20.48;;;3.30;;
56455;SDS011;42354;53.218;6.564;2022-08-01T06:42:40;16.02;;;2.75;;
56455;SDS011;42354;53.218;6.564;2022-08-01T06:45:10;15.40;;;3.00;;
56455;SDS011;42354;53.218;6.564;2022-08-01T06:47:37;17.02;;;3.65;;
56455;SDS011;42354;53.218;6.564;2022-08-01T06:50:04;25.10;;;2.83;;
56455;SDS011;42354;53.218;6.564;2022-08-01T06:52:30;20.80;;;2.72;;
56455;SDS011;42354;53.218;6.564;2022-08-01T06:54:56;16.15;;;2.78;;
56455;SDS011;42354;53.218;6.564;2022-08-01T06:57:21;19.00;;;3.33;;
56455;SDS011;42354;53.218;6.564;2022-08-01T06:59:47;19.38;;;2.67;;
56455;SDS011;42354;53.218;6.564;2022-08-01T07:02:12;16.15;;;2.90;;
56455;SDS011;42354;53.218;6.564;2022-08-01T07:04:37;12.63;;;2.50;;
56455;SDS011;42354;53.218;6.564;2022-08-01T07:07:03;15.65;;;2.42;;
56455;SDS011;42354;53.218;6.564;2022-08-01T07:09:28;18.15;;;2.58;;
56455;SDS011;42354;53.218;6.564;2022-08-01T07:11:54;17.25;;;2.45;;
56455;SDS011;42354;53.218;6.564;2022-08-01T07:14:20;20.65;;;3.08;;
56455;SDS011;42354;53.218;6.564;2022-08-01T07:16:46;17.35;;;2.70;;
56455;SDS011;42354;53.218;6.564;2022-08-01T07:19:12;16.10;;;2.70;;
56455;SDS011;42354;53.218;6.564;2022-08-01T07:21:38;12.27;;;2.10;;
56455;SDS011;42354;53.218;6.564;2022-08-01T07:24:04;13.63;;;3.35;;
56455;SDS011;42354;53.218;6.564;2022-08-01T07:26:30;15.40;;;2.72;;
56455;SDS011;42354;53.218;6.564;2022-08-01T07:28:56;14.07;;;2.38;;
56455;SDS011;42354;53.218;6.564;2022-08-01T07:31:21;12.55;;;2.50;;
56455;SDS011;42354;53.218;6.564;2022-08-01T07:33:48;11.18;;;2.15;;
56455;SDS011;42354;53.218;6.564;2022-08-01T07:36:14;13.98;;;1.92;;
56455;SDS011;42354;53.218;6.564;2022-08-01T07:38:39;19.42;;;2.72;;
56455;SDS011;42354;53.218;6.564;2022-08-01T07:41:04;18.63;;;2.20;;
56455;SDS011;42354;53.218;6.564;2022-08-01T07:43:30;19.85;;;2.80;;
56455;SDS011;42354;53.218;6.564;2022-08-01T07:45:55;13.00;;;2.30;;
56455;SDS011;42354;53.218;6.564;2022-08-01T07:48:20;13.27;;;2.35;;
56455;SDS011;42354;53.218;6.564;2022-08-01T07:50:49;17.02;;;2.00;;
56455;SDS011;42354;53.218;6.564;2022-08-01T07:53:17;11.13;;;2.40;;
56455;SDS011;42354;53.218;6.564;2022-08-01T07:55:43;14.05;;;1.98;;
56455;SDS011;42354;53.218;6.564;2022-08-01T07:58:08;12.20;;;2.03;;
56455;SDS011;42354;53.218;6.564;2022-08-01T08:00:33;15.95;;;1.88;;
56455;SDS011;42354;53.218;6.564;2022-08-01T08:02:59;14.43;;;2.65;;
56455;SDS011;42354;53.218;6.564;2022-08-01T08:05:25;10.88;;;2.25;;
56455;SDS011;42354;53.218;6.564;2022-08-01T08:07:51;9.30;;;1.60;;
56455;SDS011;42354;53.218;6.564;2022-08-01T08:10:16;9.43;;;2.05;;
56455;SDS011;42354;53.218;6.564;2022-08-01T08:12:42;18.65;;;2.92;;
56455;SDS011;42354;53.218;6.564;2022-08-01T08:15:07;13.15;;;2.15;;
56455;SDS011;42354;53.218;6.564;2022-08-01T08:17:33;14.00;;;1.98;;
56455;SDS011;42354;53.218;6.564;2022-08-01T08:19:58;14.85;;;2.13;;
56455;SDS011;42354;53.218;6.564;2022-08-01T08:22:24;9.45;;;1.52;;
56455;SDS011;42354;53.218;6.564;2022-08-01T08:24:49;14.05;;;2.05;;
56455;SDS011;42354;53.218;6.564;2022-08-01T08:27:14;7.68;;;1.42;;
56455;SDS011;42354;53.218;6.564;2022-08-01T08:29:40;11.50;;;1.50;;
56455;SDS011;42354;53.218;6.564;2022-08-01T08:32:06;14.10;;;2.60;;
56455;SDS011;42354;53.218;6.564;2022-08-01T08:34:33;9.60;;;1.30;;
56455;SDS011;42354;53.218;6.564;2022-08-01T08:36:59;9.93;;;1.50;;
56455;SDS011;42354;53.218;6.564;2022-08-01T08:39:25;10.63;;;1.65;;
56455;SDS011;42354;53.218;6.564;2022-08-01T08:41:51;9.82;;;1.65;;
56455;SDS011;42354;53.218;6.564;2022-08-01T08:44:17;11.43;;;2.33;;
56455;SDS011;42354;53.218;6.564;2022-08-01T08:46:46;12.55;;;1.70;;
56455;SDS011;42354;53.218;6.564;2022-08-01T08:49:17;7.30;;;1.55;;
56455;SDS011;42354;53.218;6.564;2022-08-01T08:51:47;10.50;;;1.63;;
56455;SDS011;42354;53.218;6.564;2022-08-01T08:54:14;10.10;;;1.58;;
56455;SDS011;42354;53.218;6.564;2022-08-01T08:56:42;12.50;;;2.00;;
56455;SDS011;42354;53.218;6.564;2022-08-01T08:59:10;9.27;;;1.50;;
56455;SDS011;42354;53.218;6.564;2022-08-01T09:01:36;11.70;;;1.33;;
56455;SDS011;42354;53.218;6.564;2022-08-01T09:04:02;15.70;;;1.40;;
56455;SDS011;42354;53.218;6.564;2022-08-01T09:06:28;11.88;;;1.40;;
56455;SDS011;42354;53.218;6.564;2022-08-01T09:08:55;9.65;;;1.55;;
56455;SDS011;42354;53.218;6.564;2022-08-01T09:11:21;8.30;;;1.40;;
56455;SDS011;42354;53.218;6.564;2022-08-01T09:16:35;12.60;;;1.40;;
56455;SDS011;42354;53.218;6.564;2022-08-01T09:19:06;9.18;;;1.73;;
56455;SDS011;42354;53.218;6.564;2022-08-01T09:21:37;6.53;;;1.27;;
56455;SDS011;42354;53.218;6.564;2022-08-01T09:24:03;7.75;;;1.50;;
56455;SDS011;42354;53.218;6.564;2022-08-01T09:29:00;13.80;;;1.52;;
56455;SDS011;42354;53.218;6.564;2022-08-01T09:31:29;7.55;;;1.45;;
56455;SDS011;42354;53.218;6.564;2022-08-01T09:34:00;11.95;;;1.67;;
56455;SDS011;42354;53.218;6.564;2022-08-01T09:39:14;10.25;;;1.55;;
56455;SDS011;42354;53.218;6.564;2022-08-01T09:41:40;9.35;;;1.23;;
56455;SDS011;42354;53.218;6.564;2022-08-01T09:44:06;16.02;;;1.88;;
56455;SDS011;42354;53.218;6.564;2022-08-01T09:46:31;10.73;;;1.73;;
56455;SDS011;42354;53.218;6.564;2022-08-01T09:51:31;6.20;;;1.65;;
56455;SDS011;42354;53.218;6.564;2022-08-01T09:53:59;6.85;;;1.10;;
56455;SDS011;42354;53.218;6.564;2022-08-01T09:56:25;11.07;;;1.27;;
56455;SDS011;42354;53.218;6.564;2022-08-01T09:58:51;7.28;;;1.30;;
56455;SDS011;42354;53.218;6.564;2022-08-01T10:01:19;9.82;;;1.65;;
56455;SDS011;42354;53.218;6.564;2022-08-01T10:03:46;8.80;;;1.25;;
56455;SDS011;42354;53.218;6.564;2022-08-01T10:06:21;9.95;;;1.85;;
56455;SDS011;42354;53.218;6.564;2022-08-01T10:08:47;6.95;;;1.20;;
56455;SDS011;42354;53.218;6.564;2022-08-01T10:11:13;10.40;;;1.05;;
56455;SDS011;42354;53.218;6.564;2022-08-01T10:13:39;10.30;;;1.92;;
56455;SDS011;42354;53.218;6.564;2022-08-01T10:16:05;8.80;;;1.48;;
56455;SDS011;42354;53.218;6.564;2022-08-01T10:18:32;6.55;;;1.10;;
56455;SDS011;42354;53.218;6.564;2022-08-01T10:21:03;8.05;;;1.15;;
56455;SDS011;42354;53.218;6.564;2022-08-01T10:23:35;6.90;;;1.23;;
56455;SDS011;42354;53.218;6.564;2022-08-01T10:26:01;10.32;;;1.33;;
56455;SDS011;42354;53.218;6.564;2022-08-01T10:28:29;5.22;;;0.98;;
56455;SDS011;42354;53.218;6.564;2022-08-01T10:30:56;7.28;;;1.23;;
56455;SDS011;42354;53.218;6.564;2022-08-01T10:33:23;7.45;;;1.83;;
56455;SDS011;42354;53.218;6.564;2022-08-01T10:35:49;6.78;;;1.20;;
56455;SDS011;42354;53.218;6.564;2022-08-01T10:38:16;10.93;;;1.20;;
56455;SDS011;42354;53.218;6.564;2022-08-01T10:40:42;6.95;;;1.10;;
56455;SDS011;42354;53.218;6.564;2022-08-01T10:43:11;6.43;;;1.10;;
56455;SDS011;42354;53.218;6.564;2022-08-01T10:45:39;5.20;;;1.10;;
56455;SDS011;42354;53.218;6.564;2022-08-01T10:48:21;7.55;;;1.38;;
56455;SDS011;42354;53.218;6.564;2022-08-01T10:50:52;5.28;;;1.13;;
56455;SDS011;42354;53.218;6.564;2022-08-01T10:53:21;7.88;;;0.90;;
56455;SDS011;42354;53.218;6.564;2022-08-01T10:55:51;7.00;;;1.15;;
56455;SDS011;42354;53.218;6.564;2022-08-01T10:58:32;3.90;;;1.00;;
56455;SDS011;42354;53.218;6.564;2022-08-01T11:03:40;8.15;;;1.00;;
56455;SDS011;42354;53.218;6.564;2022-08-01T11:06:06;6.10;;;1.40;;
56455;SDS011;42354;53.218;6.564;2022-08-01T11:08:32;5.30;;;1.02;;
56455;SDS011;42354;53.218;6.564;2022-08-01T11:11:02;8.45;;;0.70;;
56455;SDS011;42354;53.218;6.564;2022-08-01T11:16:26;7.60;;;0.93;;
56455;SDS011;42354;53.218;6.564;2022-08-01T11:18:59;5.57;;;1.02;;
56455;SDS011;42354;53.218;6.564;2022-08-01T11:32:54;6.65;;;0.95;;
56455;SDS011;42354;53.218;6.564;2022-08-01T11:35:22;6.38;;;0.90;;
56455;SDS011;42354;53.218;6.564;2022-08-01T11:37:49;8.82;;;0.95;;
56455;SDS011;42354;53.218;6.564;2022-08-01T11:40:21;5.53;;;0.85;;
56455;SDS011;42354;53.218;6.564;2022-08-01T11:42:49;4.78;;;1.73;;
56455;SDS011;42354;53.218;6.564;2022-08-01T11:45:16;8.60;;;1.02;;
56455;SDS011;42354;53.218;6.564;2022-08-01T11:47:42;6.28;;;0.95;;
56455;SDS011;42354;53.218;6.564;2022-08-01T11:55:26;9.05;;;1.30;;
56455;SDS011;42354;53.218;6.564;2022-08-01T11:58:04;5.13;;;0.88;;
56455;SDS011;42354;53.218;6.564;2022-08-01T12:00:30;8.48;;;1.23;;
56455;SDS011;42354;53.218;6.564;2022-08-01T12:03:06;7.05;;;1.30;;
56455;SDS011;42354;53.218;6.564;2022-08-01T12:05:35;5.20;;;0.70;;
56455;SDS011;42354;53.218;6.564;2022-08-01T12:08:02;9.43;;;1.23;;
56455;SDS011;42354;53.218;6.564;2022-08-01T12:10:33;3.55;;;1.00;;
56455;SDS011;42354;53.218;6.564;2022-08-01T12:13:05;3.33;;;0.55;;
56455;SDS011;42354;53.218;6.564;2022-08-01T12:15:35;9.77;;;2.30;;
56455;SDS011;42354;53.218;6.564;2022-08-01T12:18:02;6.43;;;1.08;;
56455;SDS011;42354;53.218;6.564;2022-08-01T12:20:35;9.55;;;1.10;;
56455;SDS011;42354;53.218;6.564;2022-08-01T12:23:04;3.60;;;0.80;;
56455;SDS011;42354;53.218;6.564;2022-08-01T12:25:34;7.97;;;1.00;;
56455;SDS011;42354;53.218;6.564;2022-08-01T12:28:03;5.63;;;1.10;;
56455;SDS011;42354;53.218;6.564;2022-08-01T12:30:30;6.07;;;0.98;;
56455;SDS011;42354;53.218;6.564;2022-08-01T12:32:59;5.30;;;1.00;;
56455;SDS011;42354;53.218;6.564;2022-08-01T12:35:27;4.32;;;1.00;;
56455;SDS011;42354;53.218;6.564;2022-08-01T12:37:55;4.80;;;1.42;;
56455;SDS011;42354;53.218;6.564;2022-08-01T12:40:29;5.32;;;0.90;;
56455;SDS011;42354;53.218;6.564;2022-08-01T12:42:56;6.35;;;0.85;;
56455;SDS011;42354;53.218;6.564;2022-08-01T12:45:25;7.20;;;0.98;;
56455;SDS011;42354;53.218;6.564;2022-08-01T12:47:55;4.75;;;1.00;;
56455;SDS011;42354;53.218;6.564;2022-08-01T12:50:25;5.43;;;0.90;;
56455;SDS011;42354;53.218;6.564;2022-08-01T12:52:53;8.13;;;1.25;;
56455;SDS011;42354;53.218;6.564;2022-08-01T12:55:19;7.20;;;1.00;;
56455;SDS011;42354;53.218;6.564;2022-08-01T12:57:48;6.95;;;1.25;;
56455;SDS011;42354;53.218;6.564;2022-08-01T13:02:49;6.93;;;1.00;;
56455;SDS011;42354;53.218;6.564;2022-08-01T13:05:25;7.53;;;0.80;;
56455;SDS011;42354;53.218;6.564;2022-08-01T13:07:50;5.55;;;1.00;;
56455;SDS011;42354;53.218;6.564;2022-08-01T13:10:26;7.90;;;1.38;;
56455;SDS011;42354;53.218;6.564;2022-08-01T13:12:55;6.60;;;1.25;;
56455;SDS011;42354;53.218;6.564;2022-08-01T13:15:23;7.22;;;0.95;;
56455;SDS011;42354;53.218;6.564;2022-08-01T13:18:00;4.55;;;0.98;;
56455;SDS011;42354;53.218;6.564;2022-08-01T13:20:45;5.72;;;1.25;;
56455;SDS011;42354;53.218;6.564;2022-08-01T13:23:19;6.93;;;1.08;;
56455;SDS011;42354;53.218;6.564;2022-08-01T13:28:22;10.25;;;1.20;;
56455;SDS011;42354;53.218;6.564;2022-08-01T13:30:52;5.80;;;1.10;;
56455;SDS011;42354;53.218;6.564;2022-08-01T13:33:24;6.40;;;1.30;;
56455;SDS011;42354;53.218;6.564;2022-08-01T13:35:51;6.30;;;1.42;;
56455;SDS011;42354;53.218;6.564;2022-08-01T13:38:21;8.00;;;1.42;;
56455;SDS011;42354;53.218;6.564;2022-08-01T13:41:07;5.15;;;0.82;;
56455;SDS011;42354;53.218;6.564;2022-08-01T13:43:33;8.70;;;1.00;;
56455;SDS011;42354;53.218;6.564;2022-08-01T13:46:01;6.65;;;1.17;;
56455;SDS011;42354;53.218;6.564;2022-08-01T13:48:29;4.47;;;1.13;;
56455;SDS011;42354;53.218;6.564;2022-08-01T13:50:56;5.63;;;1.50;;
56455;SDS011;42354;53.218;6.564;2022-08-01T13:53:23;6.35;;;1.00;;
56455;SDS011;42354;53.218;6.564;2022-08-01T13:55:49;8.05;;;1.42;;
56455;SDS011;42354;53.218;6.564;2022-08-01T13:58:14;9.63;;;1.20;;
56455;SDS011;42354;53.218;6.564;2022-08-01T14:00:40;5.90;;;0.93;;
56455;SDS011;42354;53.218;6.564;2022-08-01T14:03:06;7.22;;;1.60;;
56455;SDS011;42354;53.218;6.564;2022-08-01T14:05:31;7.47;;;0.98;;
56455;SDS011;42354;53.218;6.564;2022-08-01T14:07:56;6.72;;;1.15;;
56455;SDS011;42354;53.218;6.564;2022-08-01T14:10:23;5.65;;;1.10;;
56455;SDS011;42354;53.218;6.564;2022-08-01T14:12:49;10.48;;;1.30;;
56455;SDS011;42354;53.218;6.564;2022-08-01T14:15:15;7.07;;;0.98;;
56455;SDS011;42354;53.218;6.564;2022-08-01T14:17:41;6.93;;;1.17;;
56455;SDS011;42354;53.218;6.564;2022-08-01T14:20:06;7.00;;;1.27;;
56455;SDS011;42354;53.218;6.564;2022-08-01T14:22:32;5.90;;;1.00;;
56455;SDS011;42354;53.218;6.564;2022-08-01T14:24:57;11.20;;;1.35;;
56455;SDS011;42354;53.218;6.564;2022-08-01T14:27:24;7.95;;;1.23;;
56455;SDS011;42354;53.218;6.564;2022-08-01T14:29:49;9.40;;;1.33;;
56455;SDS011;42354;53.218;6.564;2022-08-01T14:32:14;7.43;;;1.30;;
56455;SDS011;42354;53.218;6.564;2022-08-01T14:34:40;9.48;;;1.48;;
56455;SDS011;42354;53.218;6.564;2022-08-01T14:37:05;8.85;;;1.20;;
56455;SDS011;42354;53.218;6.564;2022-08-01T14:39:31;7.90;;;0.93;;
56455;SDS011;42354;53.218;6.564;2022-08-01T14:41:56;6.85;;;1.05;;
56455;SDS011;42354;53.218;6.564;2022-08-01T14:44:21;5.78;;;1.27;;
56455;SDS011;42354;53.218;6.564;2022-08-01T14:46:47;9.70;;;1.13;;
56455;SDS011;42354;53.218;6.564;2022-08-01T14:49:13;7.65;;;1.25;;
56455;SDS011;42354;53.218;6.564;2022-08-01T14:51:39;7.43;;;1.38;;
56455;SDS011;42354;53.218;6.564;2022-08-01T14:54:07;6.40;;;1.30;;
56455;SDS011;42354;53.218;6.564;2022-08-01T14:56:32;8.77;;;1.38;;
56455;SDS011;42354;53.218;6.564;2022-08-01T14:58:58;5.82;;;1.15;;
56455;SDS011;42354;53.218;6.564;2022-08-01T15:01:23;4.60;;;0.98;;
56455;SDS011;42354;53.218;6.564;2022-08-01T15:03:49;6.95;;;1.27;;
56455;SDS011;42354;53.218;6.564;2022-08-01T15:06:15;6.70;;;1.10;;
56455;SDS011;42354;53.218;6.564;2022-08-01T15:08:42;8.73;;;1.42;;
56455;SDS011;42354;53.218;6.564;2022-08-01T15:11:08;17.38;;;1.30;;
56455;SDS011;42354;53.218;6.564;2022-08-01T15:13:33;5.97;;;1.10;;
56455;SDS011;42354;53.218;6.564;2022-08-01T15:16:01;6.65;;;1.38;;
56455;SDS011;42354;53.218;6.564;2022-08-01T15:18:27;6.43;;;1.42;;
56455;SDS011;42354;53.218;6.564;2022-08-01T15:20:53;8.95;;;1.45;;
56455;SDS011;42354;53.218;6.564;2022-08-01T15:23:19;6.50;;;1.67;;
56455;SDS011;42354;53.218;6.564;2022-08-01T15:25:46;7.20;;;1.10;;
56455;SDS011;42354;53.218;6.564;2022-08-01T15:28:11;7.93;;;1.25;;
56455;SDS011;42354;53.218;6.564;2022-08-01T15:30:37;6.22;;;1.25;;
56455;SDS011;42354;53.218;6.564;2022-08-01T15:33:06;7.07;;;1.20;;